Time;durP1;ratioP1;P1;durP2;ratioP2;P2;SDS_P1;SDS_P2;PMS_P1;PMS_P2;Temp;Humidity;BMP_temperature;BMP_pressure;BME280_temperature;BME280_humidity;BME280_pressure;Samples;Min_cycle;Max_cycle;Signal;HPM_P1;HPM_P2
2023/12/10 00:02:22;;;;;;;12.93;6.10;;;;;;;;;;4971911;28;20278;-50
2023/12/10 00:04:50;;;;;;;11.60;6.93;;;;;;;;;;4974750;28;20658;-49
2023/12/10 00:07:17;;;;;;;11.63;6.17;;;;;;;;;;4975540;28;20261;-50
2023/12/10 00:09:42;;;;;;;13.27;6.50;;;;;;;;;;4975704;28;20580;-49
2023/12/10 00:12:09;;;;;;;12.50;5.70;;;;;;;;;;4975571;28;20201;-50
2023/12/10 00:14:35;;;;;;;10.50;6.50;;;;;;;;;;4975257;28;20262;-49
2023/12/10 00:17:01;;;;;;;8.73;5.73;;;;;;;;;;4975449;28;20265;-50
2023/12/10 00:19:27;;;;;;;14.43;6.00;;;;;;;;;;4975593;28;20207;-50
2023/12/10 00:21:54;;;;;;;12.40;6.07;;;;;;;;;;4975480;28;20229;-49
2023/12/10 00:24:22;;;;;;;16.23;6.17;;;;;;;;;;4975405;28;20576;-49
2023/12/10 00:26:48;;;;;;;16.57;5.73;;;;;;;;;;4975044;28;20242;-49
2023/12/10 00:29:14;;;;;;;19.77;7.47;;;;;;;;;;4975165;28;20230;-49
2023/12/10 00:31:42;;;;;;;17.67;5.30;;;;;;;;;;4975522;28;20563;-49
2023/12/10 00:34:09;;;;;;;15.83;4.87;;;;;;;;;;4984353;28;20276;-49
2023/12/10 00:36:35;;;;;;;15.97;4.93;;;;;;;;;;4990921;28;20206;-49
2023/12/10 00:39:04;;;;;;;15.33;5.37;;;;;;;;;;4994470;28;20280;-48
2023/12/10 00:41:30;;;;;;;22.10;5.10;;;;;;;;;;4994652;28;20230;-48
2023/12/10 00:43:56;;;;;;;20.20;5.43;;;;;;;;;;4994776;28;20723;-49
2023/12/10 00:46:22;;;;;;;25.70;5.00;;;;;;;;;;4994607;28;20206;-48
2023/12/10 00:48:48;;;;;;;16.63;4.60;;;;;;;;;;4994520;28;20201;-49
2023/12/10 00:51:18;;;;;;;14.83;4.03;;;;;;;;;;4994309;28;20202;-48
2023/12/10 00:53:44;;;;;;;17.03;4.17;;;;;;;;;;4994261;28;20248;-49
2023/12/10 00:56:12;;;;;;;20.63;5.30;;;;;;;;;;4994346;28;20669;-49
2023/12/10 00:58:38;;;;;;;21.77;4.43;;;;;;;;;;4994208;28;20206;-49
2023/12/10 01:01:04;;;;;;;15.70;4.20;;;;;;;;;;4994262;28;20206;-49
2023/12/10 01:03:30;;;;;;;20.17;5.43;;;;;;;;;;4994046;28;20198;-49
2023/12/10 01:05:56;;;;;;;15.87;4.30;;;;;;;;;;4994177;28;20196;-48
2023/12/10 01:08:22;;;;;;;19.30;4.77;;;;;;;;;;4994161;28;20202;-49
2023/12/10 01:10:48;;;;;;;16.40;4.10;;;;;;;;;;4993979;28;20225;-50
2023/12/10 01:13:15;;;;;;;26.00;4.93;;;;;;;;;;4993889;28;20218;-49
2023/12/10 01:15:41;;;;;;;20.17;4.23;;;;;;;;;;4993257;28;20213;-49
2023/12/10 01:18:07;;;;;;;17.63;4.70;;;;;;;;;;4993900;28;20199;-49
2023/12/10 01:20:34;;;;;;;18.93;4.80;;;;;;;;;;4993774;28;20204;-50
2023/12/10 01:23:00;;;;;;;17.70;4.20;;;;;;;;;;4993688;28;20234;-49
2023/12/10 01:25:26;;;;;;;22.10;4.70;;;;;;;;;;4993644;28;20281;-49
2023/12/10 01:27:52;;;;;;;16.10;4.23;;;;;;;;;;4993526;28;20296;-48
2023/12/10 01:30:23;;;;;;;23.27;5.13;;;;;;;;;;4993427;28;20669;-49
2023/12/10 01:32:50;;;;;;;18.23;4.47;;;;;;;;;;4992032;28;20206;-49
2023/12/10 01:35:16;;;;;;;19.10;4.50;;;;;;;;;;4993308;28;20202;-49
2023/12/10 01:37:42;;;;;;;18.07;4.80;;;;;;;;;;4993657;28;20225;-49
2023/12/10 01:40:08;;;;;;;17.80;4.50;;;;;;;;;;4993485;28;20194;-49
2023/12/10 01:42:35;;;;;;;18.83;4.63;;;;;;;;;;4993251;28;20212;-49
2023/12/10 01:45:01;;;;;;;17.87;4.70;;;;;;;;;;4993370;28;20286;-49
2023/12/10 01:47:28;;;;;;;17.90;4.77;;;;;;;;;;4992095;28;20202;-49
2023/12/10 01:49:55;;;;;;;18.10;4.30;;;;;;;;;;4993812;28;20216;-49
2023/12/10 01:52:22;;;;;;;19.57;4.20;;;;;;;;;;4993303;28;20206;-49
2023/12/10 01:54:48;;;;;;;20.13;4.80;;;;;;;;;;4993125;28;20246;-49
2023/12/10 01:57:15;;;;;;;18.07;4.70;;;;;;;;;;4992938;28;20206;-49
2023/12/10 01:59:41;;;;;;;24.30;6.17;;;;;;;;;;4993233;28;20237;-49
2023/12/10 02:02:07;;;;;;;15.63;4.43;;;;;;;;;;4992980;28;20198;-49
2023/12/10 02:04:34;;;;;;;24.30;4.67;;;;;;;;;;4993044;28;20214;-49
2023/12/10 02:07:01;;;;;;;29.40;5.70;;;;;;;;;;4993072;28;20238;-48
2023/12/10 02:09:26;;;;;;;20.93;5.07;;;;;;;;;;4992911;28;20198;-49
2023/12/10 02:11:53;;;;;;;19.00;4.00;;;;;;;;;;4992923;28;20207;-49
2023/12/10 02:14:19;;;;;;;15.47;4.33;;;;;;;;;;4992610;28;20217;-49
2023/12/10 02:16:45;;;;;;;20.67;5.43;;;;;;;;;;4992678;28;20228;-49
2023/12/10 02:19:11;;;;;;;19.00;4.63;;;;;;;;;;4992595;28;20235;-49
2023/12/10 02:21:40;;;;;;;20.57;4.97;;;;;;;;;;4992451;28;20285;-49
2023/12/10 02:24:06;;;;;;;23.27;4.40;;;;;;;;;;4992473;28;20245;-49
2023/12/10 02:26:33;;;;;;;19.93;3.80;;;;;;;;;;4991641;28;20202;-48
2023/12/10 02:29:00;;;;;;;21.73;5.27;;;;;;;;;;4992289;28;20279;-48
2023/12/10 02:31:26;;;;;;;20.60;4.80;;;;;;;;;;4992542;28;20202;-49
2023/12/10 02:33:52;;;;;;;16.83;5.17;;;;;;;;;;4992451;28;20225;-49
2023/12/10 02:36:18;;;;;;;21.57;5.10;;;;;;;;;;4992242;28;20256;-49
2023/12/10 02:38:44;;;;;;;22.30;5.10;;;;;;;;;;4992434;28;20203;-49
2023/12/10 02:41:10;;;;;;;15.90;4.40;;;;;;;;;;4992467;28;20209;-49
2023/12/10 02:43:38;;;;;;;20.60;4.90;;;;;;;;;;4992229;28;20190;-48
2023/12/10 02:46:04;;;;;;;19.03;4.87;;;;;;;;;;4992284;28;20214;-48
2023/12/10 02:48:30;;;;;;;23.33;5.10;;;;;;;;;;4992235;28;20205;-49
2023/12/10 02:50:56;;;;;;;24.97;5.50;;;;;;;;;;4992331;28;20205;-49
2023/12/10 02:53:22;;;;;;;16.00;4.47;;;;;;;;;;4992145;28;20250;-48
2023/12/10 02:55:48;;;;;;;22.00;4.63;;;;;;;;;;4992078;28;20198;-48
2023/12/10 02:58:15;;;;;;;22.67;4.70;;;;;;;;;;4992085;28;20233;-48
2023/12/10 03:00:42;;;;;;;20.87;4.83;;;;;;;;;;4992220;28;20206;-48
2023/12/10 03:03:08;;;;;;;18.07;4.63;;;;;;;;;;4992208;28;20677;-48
2023/12/10 03:05:34;;;;;;;21.00;5.07;;;;;;;;;;4992047;28;20201;-48
2023/12/10 03:08:00;;;;;;;18.00;5.40;;;;;;;;;;4991900;28;20222;-48
2023/12/10 03:10:26;;;;;;;16.93;4.50;;;;;;;;;;4991829;28;20233;-49
2023/12/10 03:12:52;;;;;;;18.80;4.77;;;;;;;;;;4991958;28;20595;-48
2023/12/10 03:15:18;;;;;;;22.00;5.00;;;;;;;;;;4991795;28;20261;-48
2023/12/10 03:17:45;;;;;;;22.50;5.40;;;;;;;;;;4991957;28;20733;-48
2023/12/10 03:20:12;;;;;;;22.87;4.80;;;;;;;;;;4991968;28;20329;-48
2023/12/10 03:22:38;;;;;;;23.70;5.43;;;;;;;;;;4991805;28;20324;-48
2023/12/10 03:25:05;;;;;;;18.57;4.63;;;;;;;;;;4991861;28;20238;-48
2023/12/10 03:27:30;;;;;;;26.00;5.50;;;;;;;;;;4991846;28;20378;-48
2023/12/10 03:29:56;;;;;;;21.30;5.03;;;;;;;;;;4991932;28;20202;-48
2023/12/10 03:32:23;;;;;;;19.10;4.90;;;;;;;;;;4991808;28;20198;-48
2023/12/10 03:34:50;;;;;;;22.03;5.53;;;;;;;;;;4991576;28;20254;-48
2023/12/10 03:37:16;;;;;;;21.93;6.30;;;;;;;;;;4991679;28;20210;-48
2023/12/10 03:39:42;;;;;;;24.20;4.70;;;;;;;;;;4994894;28;20585;-48
2023/12/10 03:42:08;;;;;;;24.27;5.63;;;;;;;;;;4995855;28;20209;-48
2023/12/10 03:44:34;;;;;;;29.23;5.20;;;;;;;;;;4995383;28;20413;-48
2023/12/10 03:47:03;;;;;;;15.43;4.53;;;;;;;;;;4995504;28;20293;-48
2023/12/10 03:49:29;;;;;;;19.87;5.13;;;;;;;;;;4995386;28;20673;-48
2023/12/10 03:51:57;;;;;;;15.13;4.27;;;;;;;;;;4995529;28;20198;-48
2023/12/10 03:54:23;;;;;;;18.63;4.47;;;;;;;;;;4995404;28;20349;-48
2023/12/10 03:56:49;;;;;;;19.80;4.70;;;;;;;;;;4995500;28;20220;-48
2023/12/10 03:59:15;;;;;;;24.73;5.30;;;;;;;;;;4995246;28;20289;-48
2023/12/10 04:01:44;;;;;;;21.93;4.60;;;;;;;;;;4995256;28;20704;-48
2023/12/10 04:04:10;;;;;;;18.07;5.27;;;;;;;;;;4995427;28;20194;-48
2023/12/10 04:06:38;;;;;;;21.00;5.33;;;;;;;;;;4995059;28;20198;-48
2023/12/10 04:09:05;;;;;;;14.50;4.47;;;;;;;;;;4995091;28;20209;-48
2023/12/10 04:11:31;;;;;;;15.73;3.97;;;;;;;;;;4994962;28;20210;-48
2023/12/10 04:13:57;;;;;;;25.63;4.77;;;;;;;;;;4995088;28;20232;-49
2023/12/10 04:16:24;;;;;;;13.80;4.70;;;;;;;;;;4995028;28;20656;-48
2023/12/10 04:18:50;;;;;;;20.30;4.77;;;;;;;;;;4994943;28;20246;-48
2023/12/10 04:21:18;;;;;;;15.13;4.47;;;;;;;;;;4994799;28;20341;-48
2023/12/10 04:23:44;;;;;;;22.37;4.27;;;;;;;;;;4994701;28;20253;-48
2023/12/10 04:26:11;;;;;;;20.30;4.40;;;;;;;;;;4994882;28;20202;-48
2023/12/10 04:28:38;;;;;;;18.03;3.87;;;;;;;;;;4994589;28;20238;-48
2023/12/10 04:31:04;;;;;;;20.63;5.00;;;;;;;;;;4994742;28;20281;-48
2023/12/10 04:33:31;;;;;;;14.33;4.13;;;;;;;;;;4994444;28;20734;-48
2023/12/10 04:35:57;;;;;;;14.00;3.93;;;;;;;;;;4994774;28;20198;-48
2023/12/10 04:38:23;;;;;;;21.23;5.20;;;;;;;;;;4994503;28;20194;-48
2023/12/10 04:40:49;;;;;;;14.37;4.30;;;;;;;;;;4994661;28;20565;-48
2023/12/10 04:43:17;;;;;;;17.20;4.87;;;;;;;;;;4994513;28;20233;-48
2023/12/10 04:45:43;;;;;;;18.00;3.80;;;;;;;;;;4994474;28;20210;-48
2023/12/10 04:48:09;;;;;;;18.07;4.03;;;;;;;;;;4989454;28;20212;-48
2023/12/10 04:50:35;;;;;;;14.07;3.87;;;;;;;;;;4979854;28;20202;-48
2023/12/10 04:53:01;;;;;;;12.33;3.80;;;;;;;;;;4984125;28;20210;-49
2023/12/10 04:55:27;;;;;;;15.77;3.80;;;;;;;;;;4982466;28;20202;-49
2023/12/10 04:57:52;;;;;;;12.17;3.60;;;;;;;;;;4980748;28;20680;-48
2023/12/10 05:00:20;;;;;;;13.30;3.30;;;;;;;;;;4982469;28;20215;-48
2023/12/10 05:02:46;;;;;;;11.00;3.00;;;;;;;;;;4980715;28;20574;-48
2023/12/10 05:05:12;;;;;;;11.93;4.10;;;;;;;;;;4980692;28;20198;-48
2023/12/10 05:07:38;;;;;;;13.83;3.43;;;;;;;;;;4982291;28;20208;-48
2023/12/10 05:10:05;;;;;;;10.73;2.70;;;;;;;;;;4977849;28;20206;-48
2023/12/10 05:12:31;;;;;;;8.30;3.30;;;;;;;;;;4962836;28;20207;-48
2023/12/10 05:14:57;;;;;;;11.37;2.93;;;;;;;;;;4961125;28;20273;-49
2023/12/10 05:17:25;;;;;;;12.43;3.33;;;;;;;;;;4962798;28;20199;-48
2023/12/10 05:19:51;;;;;;;11.00;2.90;;;;;;;;;;4961023;28;20617;-48
2023/12/10 05:22:17;;;;;;;12.50;2.90;;;;;;;;;;4960732;28;20294;-48
2023/12/10 05:24:43;;;;;;;9.77;3.00;;;;;;;;;;4962791;28;20212;-48
2023/12/10 05:27:11;;;;;;;10.37;3.13;;;;;;;;;;4964248;28;20737;-48
2023/12/10 05:29:37;;;;;;;9.27;3.50;;;;;;;;;;4962376;28;20277;-48
2023/12/10 05:32:03;;;;;;;14.67;4.00;;;;;;;;;;4960298;28;20202;-49
2023/12/10 05:34:30;;;;;;;7.63;2.77;;;;;;;;;;4960749;28;20234;-48
2023/12/10 05:36:56;;;;;;;12.13;3.00;;;;;;;;;;4962757;28;20215;-48
2023/12/10 05:39:22;;;;;;;12.03;2.90;;;;;;;;;;4960543;28;20203;-48
2023/12/10 05:41:48;;;;;;;10.47;3.00;;;;;;;;;;4960739;28;20231;-48
2023/12/10 05:44:14;;;;;;;16.83;2.80;;;;;;;;;;4960532;28;20195;-48
2023/12/10 05:46:40;;;;;;;10.97;2.83;;;;;;;;;;4960594;28;20230;-48
2023/12/10 05:49:06;;;;;;;8.73;2.67;;;;;;;;;;4962063;28;20678;-48
2023/12/10 05:51:33;;;;;;;8.80;3.13;;;;;;;;;;4961617;28;20203;-48
2023/12/10 05:53:59;;;;;;;9.17;2.70;;;;;;;;;;4961994;28;20237;-48
2023/12/10 05:56:25;;;;;;;8.87;2.80;;;;;;;;;;4960440;28;20211;-48
2023/12/10 05:58:51;;;;;;;8.90;2.70;;;;;;;;;;4960167;28;20210;-48
2023/12/10 06:01:17;;;;;;;7.90;2.50;;;;;;;;;;4960036;28;20297;-49
2023/12/10 06:03:43;;;;;;;10.63;2.67;;;;;;;;;;4961742;28;20195;-48
2023/12/10 06:06:09;;;;;;;9.63;2.70;;;;;;;;;;4960244;28;21165;-48
2023/12/10 06:08:37;;;;;;;8.30;2.50;;;;;;;;;;4961566;28;20210;-48
2023/12/10 06:11:03;;;;;;;8.47;3.00;;;;;;;;;;4961722;28;20210;-48
2023/12/10 06:13:29;;;;;;;8.57;2.47;;;;;;;;;;4959881;28;20250;-48
2023/12/10 06:15:56;;;;;;;8.10;2.20;;;;;;;;;;4961695;28;20626;-48
2023/12/10 06:18:22;;;;;;;10.80;2.77;;;;;;;;;;4959842;28;20198;-49
2023/12/10 06:20:48;;;;;;;9.87;2.90;;;;;;;;;;4959907;28;20206;-48
2023/12/10 06:23:14;;;;;;;11.47;3.10;;;;;;;;;;4959723;28;20316;-48
2023/12/10 06:25:41;;;;;;;8.53;2.53;;;;;;;;;;4961472;28;20199;-48
2023/12/10 06:28:07;;;;;;;14.10;3.03;;;;;;;;;;4959693;28;20242;-48
2023/12/10 06:30:33;;;;;;;5.50;2.77;;;;;;;;;;4959604;28;20213;-48
2023/12/10 06:32:59;;;;;;;5.60;2.33;;;;;;;;;;4959673;28;20198;-48
2023/12/10 06:35:25;;;;;;;7.50;2.43;;;;;;;;;;4959580;28;20318;-48
2023/12/10 06:37:51;;;;;;;7.83;2.37;;;;;;;;;;4961286;28;20198;-48
2023/12/10 06:40:17;;;;;;;7.90;2.87;;;;;;;;;;4959578;28;20199;-48
2023/12/10 06:42:45;;;;;;;8.57;2.40;;;;;;;;;;4959490;28;20195;-48
2023/12/10 06:45:12;;;;;;;7.53;2.50;;;;;;;;;;4959708;28;20282;-48
2023/12/10 06:47:38;;;;;;;7.30;2.90;;;;;;;;;;4957744;28;20211;-48
2023/12/10 06:50:05;;;;;;;8.53;2.60;;;;;;;;;;4961134;28;20724;-48
2023/12/10 06:52:31;;;;;;;7.20;2.53;;;;;;;;;;4959189;28;20199;-48
2023/12/10 06:54:57;;;;;;;9.70;3.10;;;;;;;;;;4961096;28;20305;-48
2023/12/10 06:57:23;;;;;;;8.57;2.60;;;;;;;;;;4959223;28;20666;-48
2023/12/10 06:59:50;;;;;;;10.13;2.63;;;;;;;;;;4959616;28;20210;-48
2023/12/10 07:02:16;;;;;;;10.63;2.33;;;;;;;;;;4959239;28;20207;-48
2023/12/10 07:04:42;;;;;;;8.50;2.40;;;;;;;;;;4959206;28;20212;-48
2023/12/10 07:07:09;;;;;;;8.77;2.57;;;;;;;;;;4959307;28;20269;-47
2023/12/10 07:09:35;;;;;;;10.03;3.00;;;;;;;;;;4959030;28;20203;-48
2023/12/10 07:12:01;;;;;;;12.47;5.30;;;;;;;;;;4959242;28;20214;-48
2023/12/10 07:14:27;;;;;;;11.83;3.40;;;;;;;;;;4958643;28;20262;-48
2023/12/10 07:16:54;;;;;;;13.87;4.43;;;;;;;;;;4959078;28;20209;-48
2023/12/10 07:19:20;;;;;;;13.33;4.33;;;;;;;;;;4959072;28;20297;-48
2023/12/10 07:21:48;;;;;;;11.90;4.30;;;;;;;;;;4958794;28;20230;-48
2023/12/10 07:24:14;;;;;;;12.07;4.10;;;;;;;;;;4958938;28;20221;-48
2023/12/10 07:26:41;;;;;;;15.10;5.30;;;;;;;;;;4958820;28;20705;-49
2023/12/10 07:29:07;;;;;;;13.87;3.80;;;;;;;;;;4960774;28;20674;-48
2023/12/10 07:31:33;;;;;;;7.93;2.50;;;;;;;;;;4958932;28;20246;-48
2023/12/10 07:34:00;;;;;;;10.37;4.17;;;;;;;;;;4959075;28;20330;-49
2023/12/10 07:36:26;;;;;;;9.73;3.40;;;;;;;;;;4959025;28;20203;-49
2023/12/10 07:38:52;;;;;;;15.17;4.37;;;;;;;;;;4958937;28;20207;-49
2023/12/10 07:41:18;;;;;;;16.10;3.93;;;;;;;;;;4958988;28;20211;-49
2023/12/10 07:43:44;;;;;;;15.73;4.47;;;;;;;;;;4959045;28;20191;-48
2023/12/10 07:46:10;;;;;;;10.27;3.60;;;;;;;;;;4960885;28;20685;-49
2023/12/10 07:48:36;;;;;;;15.23;7.13;;;;;;;;;;4958823;28;20199;-48
2023/12/10 07:51:03;;;;;;;9.20;3.90;;;;;;;;;;4958990;28;20210;-48
2023/12/10 07:53:29;;;;;;;8.67;3.20;;;;;;;;;;4958594;28;20214;-49
2023/12/10 07:55:55;;;;;;;12.73;3.90;;;;;;;;;;4959033;28;20199;-51
2023/12/10 07:58:22;;;;;;;14.50;4.00;;;;;;;;;;4960355;28;20273;-51
2023/12/10 08:00:48;;;;;;;9.83;2.70;;;;;;;;;;4956879;28;20207;-51
2023/12/10 08:03:14;;;;;;;18.17;4.70;;;;;;;;;;4960307;28;20749;-52
2023/12/10 08:05:40;;;;;;;10.53;3.63;;;;;;;;;;4958770;28;20206;-49
2023/12/10 08:08:07;;;;;;;11.73;3.23;;;;;;;;;;4960619;28;20203;-50
2023/12/10 08:10:33;;;;;;;10.00;3.90;;;;;;;;;;4960590;28;20215;-49
2023/12/10 08:12:59;;;;;;;12.33;3.10;;;;;;;;;;4960516;28;20593;-49
2023/12/10 08:15:26;;;;;;;12.13;3.30;;;;;;;;;;4958834;28;20226;-50
2023/12/10 08:17:52;;;;;;;8.67;2.87;;;;;;;;;;4958687;28;20207;-49
2023/12/10 08:20:18;;;;;;;7.73;2.60;;;;;;;;;;4959901;28;20549;-49
2023/12/10 08:22:44;;;;;;;9.93;2.87;;;;;;;;;;4959891;28;20786;-49
2023/12/10 08:25:11;;;;;;;14.80;3.60;;;;;;;;;;4959284;28;20649;-49
2023/12/10 08:27:37;;;;;;;10.67;3.20;;;;;;;;;;4963285;28;20241;-49
2023/12/10 08:30:04;;;;;;;10.20;3.13;;;;;;;;;;4961824;28;20203;-49
2023/12/10 08:32:30;;;;;;;12.70;2.90;;;;;;;;;;4964861;28;20206;-50
2023/12/10 08:34:56;;;;;;;11.33;3.73;;;;;;;;;;4963551;28;20693;-50
2023/12/10 08:37:22;;;;;;;11.37;3.10;;;;;;;;;;4961841;28;20242;-49
2023/12/10 08:39:49;;;;;;;11.37;3.13;;;;;;;;;;4961481;28;20199;-49
2023/12/10 08:42:16;;;;;;;12.87;3.60;;;;;;;;;;4961527;28;20211;-49
2023/12/10 08:44:42;;;;;;;11.93;2.80;;;;;;;;;;4961459;28;20210;-49
2023/12/10 08:47:08;;;;;;;10.03;3.77;;;;;;;;;;4963246;28;20253;-49
2023/12/10 08:49:34;;;;;;;9.77;3.20;;;;;;;;;;4961239;28;20288;-49
2023/12/10 08:52:00;;;;;;;6.60;2.70;;;;;;;;;;4963044;28;20199;-49
2023/12/10 08:54:26;;;;;;;8.53;3.20;;;;;;;;;;4961270;28;20230;-49
2023/12/10 08:56:52;;;;;;;12.93;3.13;;;;;;;;;;4963324;28;20199;-49
2023/12/10 08:59:21;;;;;;;9.20;2.50;;;;;;;;;;4961199;28;20625;-49
2023/12/10 09:01:47;;;;;;;6.03;2.40;;;;;;;;;;4961355;28;20428;-49
2023/12/10 09:04:13;;;;;;;11.53;2.90;;;;;;;;;;4962932;28;20199;-49
2023/12/10 09:06:39;;;;;;;8.57;2.93;;;;;;;;;;4962927;28;20210;-49
2023/12/10 09:09:05;;;;;;;11.20;2.80;;;;;;;;;;4962743;28;20206;-49
2023/12/10 09:11:31;;;;;;;10.67;3.07;;;;;;;;;;4961634;28;20205;-49
2023/12/10 09:13:57;;;;;;;9.63;3.13;;;;;;;;;;4962885;28;20223;-49
2023/12/10 09:16:25;;;;;;;11.63;2.87;;;;;;;;;;4959385;28;20238;-49
2023/12/10 09:18:51;;;;;;;7.07;2.50;;;;;;;;;;4964183;28;20234;-49
2023/12/10 09:21:17;;;;;;;8.27;2.43;;;;;;;;;;4961254;28;20194;-49
2023/12/10 09:23:43;;;;;;;6.03;2.40;;;;;;;;;;4962659;28;20265;-49
2023/12/10 09:26:12;;;;;;;9.30;2.70;;;;;;;;;;4969433;28;20261;-49
2023/12/10 09:28:38;;;;;;;8.83;2.70;;;;;;;;;;4970375;28;20274;-48
2023/12/10 09:31:04;;;;;;;10.50;2.60;;;;;;;;;;4975754;28;20210;-49
2023/12/10 09:33:31;;;;;;;7.93;2.60;;;;;;;;;;4974717;28;20199;-50
2023/12/10 09:35:58;;;;;;;9.53;2.70;;;;;;;;;;4974855;28;20614;-49
2023/12/10 09:38:24;;;;;;;10.17;3.47;;;;;;;;;;4975416;28;20221;-49
2023/12/10 09:40:50;;;;;;;10.73;2.63;;;;;;;;;;4975019;28;20202;-49
2023/12/10 09:43:16;;;;;;;10.27;2.83;;;;;;;;;;4973816;28;20269;-49
2023/12/10 09:45:42;;;;;;;5.97;2.20;;;;;;;;;;4973259;28;20732;-49
2023/12/10 09:48:08;;;;;;;6.73;2.67;;;;;;;;;;4974563;28;20203;-48
2023/12/10 09:50:42;;;;;;;7.33;2.60;;;;;;;;;;4974602;28;20329;-53
2023/12/10 09:53:08;;;;;;;8.00;2.40;;;;;;;;;;4974658;28;20578;-48
2023/12/10 09:55:35;;;;;;;6.97;2.60;;;;;;;;;;4974039;28;20227;-49
2023/12/10 09:58:01;;;;;;;9.97;2.60;;;;;;;;;;4973677;28;20282;-49
2023/12/10 10:00:28;;;;;;;5.40;2.27;;;;;;;;;;4973548;28;20278;-49
2023/12/10 10:02:59;;;;;;;7.87;2.60;;;;;;;;;;4973725;28;20227;-50
2023/12/10 10:05:25;;;;;;;8.87;2.30;;;;;;;;;;4973592;28;20205;-49
2023/12/10 10:07:53;;;;;;;6.33;2.10;;;;;;;;;;4973364;28;20286;-49
2023/12/10 10:10:21;;;;;;;6.13;2.10;;;;;;;;;;4973169;28;20771;-49
2023/12/10 10:12:47;;;;;;;11.27;2.40;;;;;;;;;;4972943;28;20234;-49
2023/12/10 10:15:13;;;;;;;6.57;2.40;;;;;;;;;;4973621;28;20237;-49
2023/12/10 10:17:39;;;;;;;5.27;2.00;;;;;;;;;;4973686;28;20675;-49
2023/12/10 10:20:06;;;;;;;4.17;2.17;;;;;;;;;;4973070;28;20688;-49
2023/12/10 10:22:32;;;;;;;6.13;2.10;;;;;;;;;;4973142;28;20242;-49
2023/12/10 10:25:00;;;;;;;5.43;2.10;;;;;;;;;;4973202;28;20242;-50
2023/12/10 10:27:26;;;;;;;6.13;2.20;;;;;;;;;;4973043;28;20238;-49
2023/12/10 10:29:55;;;;;;;7.70;2.70;;;;;;;;;;4972936;28;20220;-49
2023/12/10 10:32:22;;;;;;;7.27;2.30;;;;;;;;;;4972972;28;20286;-50
2023/12/10 10:34:48;;;;;;;5.73;2.20;;;;;;;;;;4972773;28;20504;-49
2023/12/10 10:37:15;;;;;;;6.90;2.40;;;;;;;;;;4972698;28;20685;-50
2023/12/10 10:39:41;;;;;;;6.43;2.30;;;;;;;;;;4973366;28;20270;-50
2023/12/10 10:42:10;;;;;;;7.73;3.10;;;;;;;;;;4972903;28;20207;-49
2023/12/10 10:44:36;;;;;;;7.57;2.50;;;;;;;;;;4972587;28;20206;-50
2023/12/10 10:47:04;;;;;;;9.73;2.60;;;;;;;;;;4973054;28;20294;-50
2023/12/10 10:49:31;;;;;;;6.30;2.30;;;;;;;;;;4972266;28;20202;-49
2023/12/10 10:51:58;;;;;;;6.23;2.10;;;;;;;;;;4972839;28;20570;-50
2023/12/10 10:54:24;;;;;;;7.13;2.37;;;;;;;;;;4972826;28;20249;-50
2023/12/10 10:56:50;;;;;;;6.43;2.10;;;;;;;;;;4972805;28;20310;-49
2023/12/10 10:59:30;;;;;;;8.60;3.03;;;;;;;;;;4972611;28;20243;-50
2023/12/10 11:01:57;;;;;;;5.27;2.67;;;;;;;;;;4972706;28;20691;-50
2023/12/10 11:04:23;;;;;;;7.00;2.07;;;;;;;;;;4972727;28;20242;-50
2023/12/10 11:06:53;;;;;;;6.93;2.40;;;;;;;;;;4972509;28;20202;-51
2023/12/10 11:09:19;;;;;;;8.00;2.37;;;;;;;;;;4972599;28;20202;-49
2023/12/10 11:11:45;;;;;;;6.83;2.53;;;;;;;;;;4972525;28;20234;-50
2023/12/10 11:14:21;;;;;;;5.97;2.23;;;;;;;;;;4972703;28;20258;-51
2023/12/10 11:16:50;;;;;;;9.73;3.00;;;;;;;;;;4972340;28;20595;-53
2023/12/10 11:19:21;;;;;;;8.33;2.50;;;;;;;;;;4972498;28;20203;-52
2023/12/10 11:21:48;;;;;;;8.73;2.53;;;;;;;;;;4972170;28;20207;-53
2023/12/10 11:24:14;;;;;;;9.47;2.93;;;;;;;;;;4972153;28;20559;-49
2023/12/10 11:26:40;;;;;;;8.83;2.57;;;;;;;;;;4972445;28;20325;-51
2023/12/10 11:29:06;;;;;;;10.43;2.97;;;;;;;;;;4972548;28;20207;-52
2023/12/10 11:31:32;;;;;;;9.00;2.87;;;;;;;;;;4972477;28;20299;-51
2023/12/10 11:34:00;;;;;;;7.53;2.73;;;;;;;;;;4972367;28;20234;-51
2023/12/10 11:36:26;;;;;;;13.00;3.40;;;;;;;;;;4972469;28;20211;-51
2023/12/10 11:38:52;;;;;;;9.60;2.47;;;;;;;;;;4972235;28;20238;-51
2023/12/10 11:41:18;;;;;;;10.50;2.70;;;;;;;;;;4972391;28;20199;-51
2023/12/10 11:43:45;;;;;;;3.87;2.70;;;;;;;;;;4972227;28;20620;-52
2023/12/10 11:46:11;;;;;;;7.17;2.80;;;;;;;;;;4972559;28;20203;-51
2023/12/10 11:48:37;;;;;;;5.50;2.33;;;;;;;;;;4972222;28;20297;-51
2023/12/10 11:51:06;;;;;;;8.53;2.50;;;;;;;;;;4972261;28;20246;-51
2023/12/10 11:53:32;;;;;;;6.60;2.40;;;;;;;;;;4972081;28;20673;-51
2023/12/10 11:55:58;;;;;;;7.50;2.50;;;;;;;;;;4972391;28;20199;-51
2023/12/10 11:58:26;;;;;;;4.40;2.07;;;;;;;;;;4972616;28;20281;-51
2023/12/10 12:00:59;;;;;;;7.17;2.50;;;;;;;;;;4974028;28;20222;-50
2023/12/10 12:03:25;;;;;;;8.00;2.37;;;;;;;;;;4976841;28;20661;-50
2023/12/10 12:05:51;;;;;;;5.33;2.27;;;;;;;;;;4975857;28;20194;-51
2023/12/10 12:08:19;;;;;;;5.97;2.80;;;;;;;;;;4976218;28;20202;-51
2023/12/10 12:10:44;;;;;;;5.17;2.40;;;;;;;;;;4975739;28;20669;-51
2023/12/10 12:13:10;;;;;;;8.73;3.03;;;;;;;;;;4976327;28;20198;-51
2023/12/10 12:15:37;;;;;;;11.80;3.20;;;;;;;;;;4975796;28;20640;-50
2023/12/10 12:18:03;;;;;;;8.77;2.80;;;;;;;;;;4975823;28;20203;-51
2023/12/10 12:20:30;;;;;;;8.97;3.27;;;;;;;;;;4975712;28;20199;-51
2023/12/10 12:22:56;;;;;;;11.03;3.40;;;;;;;;;;4975644;28;20636;-51
2023/12/10 12:25:24;;;;;;;11.07;2.87;;;;;;;;;;4975830;28;20237;-51
2023/12/10 12:27:50;;;;;;;10.30;2.93;;;;;;;;;;4975242;28;20289;-51
2023/12/10 12:30:17;;;;;;;14.23;3.27;;;;;;;;;;4975351;28;20203;-51
2023/12/10 12:32:43;;;;;;;13.50;3.57;;;;;;;;;;4975265;28;20305;-51
2023/12/10 12:35:09;;;;;;;14.00;3.60;;;;;;;;;;4975425;28;20325;-51
2023/12/10 12:37:35;;;;;;;7.67;2.80;;;;;;;;;;4975408;28;20295;-50
2023/12/10 12:40:02;;;;;;;10.67;2.97;;;;;;;;;;4975534;28;20202;-50
2023/12/10 12:42:29;;;;;;;9.80;3.07;;;;;;;;;;4976059;28;20282;-51
2023/12/10 12:44:55;;;;;;;10.63;3.33;;;;;;;;;;4975365;28;20306;-50
2023/12/10 12:47:21;;;;;;;14.47;3.70;;;;;;;;;;4975120;28;20249;-50
2023/12/10 12:49:47;;;;;;;11.07;3.50;;;;;;;;;;4975343;28;20191;-51
2023/12/10 12:52:14;;;;;;;13.27;3.40;;;;;;;;;;4974939;28;20234;-52
2023/12/10 12:54:40;;;;;;;14.30;3.93;;;;;;;;;;4975047;28;20573;-52
2023/12/10 12:57:06;;;;;;;11.83;3.47;;;;;;;;;;4975052;28;20670;-51
2023/12/10 12:59:34;;;;;;;14.27;4.30;;;;;;;;;;4974697;28;20680;-51
2023/12/10 13:02:00;;;;;;;13.57;3.77;;;;;;;;;;4974802;28;20203;-51
2023/12/10 13:04:26;;;;;;;9.30;3.73;;;;;;;;;;4974944;28;20205;-51
2023/12/10 13:06:52;;;;;;;11.67;3.90;;;;;;;;;;4974674;28;20215;-51
2023/12/10 13:09:19;;;;;;;14.93;3.63;;;;;;;;;;4975485;28;20195;-51
2023/12/10 13:11:45;;;;;;;11.40;3.13;;;;;;;;;;4973654;28;20207;-51
2023/12/10 13:14:11;;;;;;;9.70;3.47;;;;;;;;;;4974720;28;20716;-50
2023/12/10 13:16:39;;;;;;;11.87;3.30;;;;;;;;;;4974826;28;20693;-51
2023/12/10 13:19:05;;;;;;;12.13;3.40;;;;;;;;;;4972851;28;20281;-51
2023/12/10 13:21:31;;;;;;;11.73;3.27;;;;;;;;;;4974271;28;20253;-51
2023/12/10 13:23:57;;;;;;;12.50;3.10;;;;;;;;;;4974519;28;20817;-51
2023/12/10 13:26:23;;;;;;;12.53;3.40;;;;;;;;;;4974222;28;20209;-51
2023/12/10 13:28:49;;;;;;;13.87;3.50;;;;;;;;;;4974076;28;20199;-51
2023/12/10 13:31:15;;;;;;;11.70;3.50;;;;;;;;;;4974034;28;20226;-51
2023/12/10 13:33:42;;;;;;;8.43;3.03;;;;;;;;;;4974164;28;20239;-50
2023/12/10 13:36:09;;;;;;;12.63;3.57;;;;;;;;;;4974022;28;20673;-50
2023/12/10 13:38:35;;;;;;;12.13;3.37;;;;;;;;;;4973832;28;20191;-49
2023/12/10 13:41:01;;;;;;;14.40;3.50;;;;;;;;;;4973991;28;20207;-51
2023/12/10 13:43:27;;;;;;;13.87;2.93;;;;;;;;;;4973890;28;20203;-49
2023/12/10 13:45:53;;;;;;;8.80;2.83;;;;;;;;;;4973693;28;20222;-50
2023/12/10 13:48:19;;;;;;;8.90;3.13;;;;;;;;;;4973825;28;20265;-50
2023/12/10 13:50:46;;;;;;;15.13;3.33;;;;;;;;;;4973558;28;20198;-50
2023/12/10 13:53:12;;;;;;;15.70;3.37;;;;;;;;;;4973979;28;20211;-50
2023/12/10 13:55:38;;;;;;;12.57;2.77;;;;;;;;;;4973496;28;20234;-50
2023/12/10 13:58:04;;;;;;;6.47;2.87;;;;;;;;;;4973730;28;20214;-50
2023/12/10 14:00:31;;;;;;;8.63;2.80;;;;;;;;;;4973519;28;20205;-49
2023/12/10 14:02:57;;;;;;;7.43;3.10;;;;;;;;;;4973620;28;20206;-50
2023/12/10 14:05:23;;;;;;;15.00;3.40;;;;;;;;;;4973471;28;20209;-50
2023/12/10 14:07:50;;;;;;;12.57;3.53;;;;;;;;;;4973295;28;20265;-50
2023/12/10 14:10:16;;;;;;;11.23;3.00;;;;;;;;;;4973442;28;20258;-50
2023/12/10 14:12:42;;;;;;;12.73;2.97;;;;;;;;;;4966733;28;20211;-49
2023/12/10 14:15:09;;;;;;;14.87;3.30;;;;;;;;;;4959952;28;20238;-50
2023/12/10 14:17:38;;;;;;;11.40;3.60;;;;;;;;;;4961496;28;20219;-50
2023/12/10 14:20:04;;;;;;;10.80;2.97;;;;;;;;;;4963284;28;20243;-49
2023/12/10 14:22:31;;;;;;;14.97;3.90;;;;;;;;;;4959542;28;20218;-51
2023/12/10 14:24:59;;;;;;;11.93;3.67;;;;;;;;;;4961288;28;20269;-49
2023/12/10 14:27:25;;;;;;;12.07;3.73;;;;;;;;;;4961353;28;20705;-49
2023/12/10 14:29:51;;;;;;;13.33;3.33;;;;;;;;;;4959570;28;20202;-49